Time;durP1;ratioP1;P1;durP2;ratioP2;P2;SDS_P1;SDS_P2;PMS_P1;PMS_P2;Temp;Humidity;BMP_temperature;BMP_pressure;BME280_temperature;BME280_humidity;BME280_pressure;Samples;Min_cycle;Max_cycle;Signal;HPM_P1;HPM_P2
2023/09/10 00:00:39;;;;;;;8.90;6.78;;;17.90;99.90;;;;;;5055660;28;20029;-74
2023/09/10 00:03:05;;;;;;;9.35;6.82;;;17.80;99.90;;;;;;5055569;28;20052;-74
2023/09/10 00:05:33;;;;;;;7.75;6.15;;;17.80;99.90;;;;;;5055609;28;20021;-74
2023/09/10 00:08:02;;;;;;;7.38;5.72;;;17.80;99.90;;;;;;5055486;28;20053;-74
2023/09/10 00:10:28;;;;;;;6.88;5.80;;;17.80;99.90;;;;;;5038414;28;20029;-74
2023/09/10 00:12:54;;;;;;;6.75;5.68;;;17.80;99.90;;;;;;5055668;28;20083;-74
2023/09/10 00:15:19;;;;;;;7.85;5.43;;;17.80;99.90;;;;;;5054762;28;20029;-74
2023/09/10 00:17:45;;;;;;;7.00;5.75;;;17.80;99.90;;;;;;5055399;28;20055;-74
2023/09/10 00:20:11;;;;;;;7.45;5.90;;;17.80;99.90;;;;;;5037930;28;20122;-75
2023/09/10 00:22:37;;;;;;;6.07;5.15;;;17.80;99.90;;;;;;5055370;28;20040;-74
2023/09/10 00:25:04;;;;;;;7.78;6.57;;;17.70;99.90;;;;;;5055200;28;20048;-74
2023/09/10 00:27:30;;;;;;;10.38;6.05;;;17.70;99.90;;;;;;5037605;28;20033;-74
2023/09/10 00:29:56;;;;;;;7.30;6.28;;;17.60;99.90;;;;;;5055353;28;20083;-74
2023/09/10 00:32:22;;;;;;;8.35;6.50;;;17.50;99.90;;;;;;5054915;28;20057;-74
2023/09/10 00:34:47;;;;;;;6.97;5.90;;;17.50;99.90;;;;;;5055078;28;20025;-75
2023/09/10 00:37:16;;;;;;;8.80;6.65;;;17.40;99.90;;;;;;5055022;28;20025;-74
2023/09/10 00:39:42;;;;;;;8.05;6.20;;;17.40;99.90;;;;;;5037500;28;20021;-74
2023/09/10 00:42:09;;;;;;;8.55;6.40;;;17.30;99.90;;;;;;5054825;28;20128;-74
2023/09/10 00:44:36;;;;;;;7.10;5.93;;;17.20;99.90;;;;;;5054836;28;20036;-74
2023/09/10 00:47:03;;;;;;;9.38;6.63;;;17.20;99.90;;;;;;5055112;28;20033;-74
2023/09/10 00:49:30;;;;;;;7.85;6.43;;;17.20;99.90;;;;;;5054731;28;20468;-74
2023/09/10 00:51:57;;;;;;;8.05;5.97;;;17.10;99.90;;;;;;5054860;28;20119;-74
2023/09/10 00:54:24;;;;;;;6.88;5.95;;;17.10;99.90;;;;;;5050974;28;20508;-75
2023/09/10 00:56:51;;;;;;;8.98;6.40;;;17.10;99.90;;;;;;5054895;28;20385;-74
2023/09/10 00:59:16;;;;;;;8.32;5.93;;;17.10;99.90;;;;;;5036772;28;20052;-74
2023/09/10 01:01:42;;;;;;;6.60;5.70;;;17.10;99.90;;;;;;5054382;28;20079;-74
2023/09/10 01:04:08;;;;;;;9.23;6.63;;;17.00;99.90;;;;;;5054449;28;20088;-74
2023/09/10 01:06:34;;;;;;;8.18;6.28;;;17.00;99.90;;;;;;5054682;28;20033;-74
2023/09/10 01:09:00;;;;;;;7.95;6.28;;;16.90;99.90;;;;;;5054964;28;20031;-74
2023/09/10 01:11:39;;;;;;;8.27;6.80;;;17.00;99.90;;;;;;5054291;28;20032;-74
2023/09/10 01:14:37;;;;;;;8.13;6.43;;;16.90;99.90;;;;;;5036344;28;20025;-74
2023/09/10 01:17:30;;;;;;;8.30;6.38;;;16.90;99.90;;;;;;5049224;28;20108;-74
2023/09/10 01:20:16;;;;;;;9.75;6.78;;;16.90;99.90;;;;;;5054183;28;20440;-74
2023/09/10 01:23:17;;;;;;;7.32;6.47;;;16.80;99.90;;;;;;5054062;28;20032;-74
2023/09/10 01:25:43;;;;;;;7.00;6.15;;;16.80;99.90;;;;;;4970016;28;20049;-74
2023/09/10 01:28:09;;;;;;;7.97;6.30;;;16.80;99.90;;;;;;5033912;28;20112;-74
2023/09/10 01:30:34;;;;;;;8.27;6.15;;;16.80;99.90;;;;;;5016357;28;20163;-74
2023/09/10 01:33:18;;;;;;;8.70;6.38;;;16.70;99.90;;;;;;5033850;28;20032;-74
2023/09/10 01:36:21;;;;;;;8.35;6.57;;;16.70;99.90;;;;;;5034033;28;20025;-74
2023/09/10 01:38:54;;;;;;;9.75;6.30;;;16.70;99.90;;;;;;4953799;29;20051;-74
2023/09/10 01:41:22;;;;;;;7.30;6.22;;;16.60;99.90;;;;;;5021448;28;20038;-74
2023/09/10 01:43:48;;;;;;;7.78;6.32;;;16.60;99.90;;;;;;5033863;28;20057;-74
2023/09/10 01:46:15;;;;;;;7.95;6.10;;;16.50;99.90;;;;;;5016080;28;20040;-74
2023/09/10 01:48:42;;;;;;;9.63;6.13;;;16.50;99.90;;;;;;5034140;28;20120;-74
2023/09/10 01:51:08;;;;;;;7.15;6.03;;;16.50;99.90;;;;;;5033783;28;20107;-74
2023/09/10 01:53:33;;;;;;;8.15;6.57;;;16.40;99.90;;;;;;5033718;28;20536;-74
2023/09/10 01:55:59;;;;;;;7.68;6.13;;;16.50;99.90;;;;;;5033571;28;20030;-74
2023/09/10 01:58:25;;;;;;;7.20;6.22;;;16.40;99.90;;;;;;5033878;28;20036;-74
2023/09/10 02:00:51;;;;;;;7.40;6.00;;;16.40;99.90;;;;;;5033544;28;20043;-74
2023/09/10 02:03:17;;;;;;;7.55;6.00;;;16.40;99.90;;;;;;5015775;28;20025;-74
2023/09/10 02:05:44;;;;;;;9.25;6.65;;;16.40;99.90;;;;;;5033554;28;20109;-74
2023/09/10 02:08:09;;;;;;;8.95;6.38;;;16.40;99.90;;;;;;5033583;28;20385;-74
2023/09/10 02:10:35;;;;;;;7.65;6.30;;;16.40;99.90;;;;;;5033437;28;20018;-74
2023/09/10 02:13:02;;;;;;;9.35;5.80;;;16.30;99.90;;;;;;4983308;28;20034;-74
2023/09/10 02:15:29;;;;;;;7.38;6.43;;;16.30;99.90;;;;;;5033613;28;20496;-74
2023/09/10 02:17:55;;;;;;;10.15;7.15;;;16.30;99.90;;;;;;5033366;28;20038;-74
2023/09/10 02:20:20;;;;;;;10.25;7.00;;;16.30;99.90;;;;;;5034210;28;20381;-74
2023/09/10 02:22:46;;;;;;;12.13;8.13;;;16.20;99.90;;;;;;5033281;28;20029;-75
2023/09/10 02:25:12;;;;;;;11.10;7.72;;;16.20;99.90;;;;;;5015660;28;20037;-74
2023/09/10 02:27:38;;;;;;;10.00;6.97;;;16.20;99.90;;;;;;5015925;28;20030;-74
2023/09/10 02:30:05;;;;;;;9.32;6.90;;;16.10;99.90;;;;;;5033269;28;20056;-75
2023/09/10 02:32:32;;;;;;;7.82;6.95;;;16.10;99.90;;;;;;5015430;28;20033;-74
2023/09/10 02:34:58;;;;;;;7.60;6.32;;;16.00;99.90;;;;;;5033230;28;20048;-75
2023/09/10 02:37:23;;;;;;;9.00;6.97;;;16.00;99.90;;;;;;5033500;28;20477;-75
2023/09/10 02:39:49;;;;;;;8.07;6.07;;;15.90;99.90;;;;;;5036602;28;20377;-75
2023/09/10 02:42:15;;;;;;;8.05;6.10;;;15.90;99.90;;;;;;5003126;28;20029;-75
2023/09/10 02:44:41;;;;;;;9.02;6.60;;;15.90;99.90;;;;;;5003235;28;20031;-74
2023/09/10 02:47:06;;;;;;;9.20;6.30;;;15.90;99.90;;;;;;5037193;28;20037;-74
2023/09/10 02:49:35;;;;;;;9.20;6.28;;;15.80;99.90;;;;;;5037445;28;20048;-75
2023/09/10 02:52:01;;;;;;;8.65;5.80;;;15.80;99.90;;;;;;5036883;28;20037;-75
2023/09/10 02:54:28;;;;;;;7.78;6.35;;;15.70;99.90;;;;;;5036896;28;20116;-75
2023/09/10 02:56:54;;;;;;;7.75;6.18;;;15.70;99.90;;;;;;5036922;28;20049;-75
2023/09/10 02:59:25;;;;;;;9.38;6.80;;;15.60;99.90;;;;;;5036910;28;20068;-74
2023/09/10 03:01:51;;;;;;;7.60;6.18;;;15.50;99.90;;;;;;5036875;28;20017;-75
2023/09/10 03:04:17;;;;;;;8.07;6.10;;;15.50;99.90;;;;;;5019155;28;20048;-75
2023/09/10 03:06:48;;;;;;;8.13;6.18;;;15.40;99.90;;;;;;5036806;28;20108;-75
2023/09/10 03:09:14;;;;;;;8.65;6.07;;;15.40;99.90;;;;;;5037039;28;20121;-75
2023/09/10 03:11:41;;;;;;;8.55;6.68;;;15.30;99.90;;;;;;5018954;28;20053;-75
2023/09/10 03:14:07;;;;;;;12.88;6.82;;;15.30;99.90;;;;;;5036623;28;20022;-74
2023/09/10 03:16:40;;;;;;;8.10;5.82;;;15.30;99.90;;;;;;5019069;28;20053;-75
2023/09/10 03:19:06;;;;;;;7.28;5.63;;;15.30;99.90;;;;;;5019776;28;20034;-75
2023/09/10 03:21:32;;;;;;;8.00;5.90;;;15.30;99.90;;;;;;5036499;28;20032;-75
2023/09/10 03:23:57;;;;;;;7.43;5.85;;;15.30;99.90;;;;;;5037116;28;20030;-75
2023/09/10 03:26:23;;;;;;;8.30;6.40;;;15.30;99.90;;;;;;5036407;28;20026;-75
2023/09/10 03:28:49;;;;;;;9.27;7.30;;;15.30;99.90;;;;;;5019093;28;20063;-74
2023/09/10 03:31:15;;;;;;;8.32;6.80;;;15.20;99.90;;;;;;5036452;28;20022;-74
2023/09/10 03:33:41;;;;;;;8.73;6.90;;;15.20;99.90;;;;;;5036211;28;20028;-75
2023/09/10 03:36:09;;;;;;;9.07;6.63;;;15.20;99.90;;;;;;5018666;28;20029;-75
2023/09/10 03:38:35;;;;;;;10.38;7.20;;;15.20;99.90;;;;;;5036213;28;20041;-75
2023/09/10 03:41:01;;;;;;;7.68;6.07;;;15.20;99.90;;;;;;5036123;28;20022;-75
2023/09/10 03:43:26;;;;;;;8.30;6.90;;;15.20;99.90;;;;;;5018284;28;20511;-75
2023/09/10 03:45:52;;;;;;;7.57;6.50;;;15.20;99.90;;;;;;5036121;28;20030;-75
2023/09/10 03:48:18;;;;;;;8.38;6.50;;;15.20;99.90;;;;;;5036034;28;20063;-74
2023/09/10 03:50:43;;;;;;;8.75;6.95;;;15.10;99.90;;;;;;5017219;28;20037;-74
2023/09/10 03:53:09;;;;;;;6.90;6.05;;;15.00;99.90;;;;;;5035948;28;20033;-74
2023/09/10 03:55:35;;;;;;;7.25;6.47;;;14.90;99.90;;;;;;5035898;28;20524;-75
2023/09/10 03:58:01;;;;;;;10.13;7.22;;;14.70;99.90;;;;;;5018066;28;20512;-75
2023/09/10 04:00:28;;;;;;;10.35;7.30;;;14.60;99.90;;;;;;5018499;28;20061;-75
2023/09/10 04:02:54;;;;;;;8.32;6.90;;;14.60;99.90;;;;;;5017975;28;20022;-74
2023/09/10 04:05:20;;;;;;;7.47;6.40;;;14.50;99.90;;;;;;5035753;28;20021;-75
2023/09/10 04:07:45;;;;;;;9.00;6.97;;;14.40;99.90;;;;;;5035996;28;20022;-75
2023/09/10 04:10:11;;;;;;;7.72;6.38;;;14.50;99.90;;;;;;5017918;28;20045;-74
2023/09/10 04:12:37;;;;;;;10.20;6.68;;;14.50;99.90;;;;;;5035445;28;20032;-75
2023/09/10 04:15:04;;;;;;;9.07;6.28;;;14.50;99.90;;;;;;5035465;28;20040;-75
2023/09/10 04:17:30;;;;;;;7.78;6.00;;;14.60;99.90;;;;;;5035423;28;20021;-75
2023/09/10 04:19:58;;;;;;;7.90;6.80;;;14.60;99.90;;;;;;5035448;28;20075;-74
2023/09/10 04:22:24;;;;;;;8.30;5.85;;;14.60;99.90;;;;;;5035377;28;20037;-75
2023/09/10 04:24:50;;;;;;;8.05;6.72;;;14.60;99.90;;;;;;5035415;28;20022;-75
2023/09/10 04:27:16;;;;;;;9.20;6.40;;;14.60;99.90;;;;;;5001269;28;20029;-74
2023/09/10 04:29:42;;;;;;;7.72;6.47;;;14.50;99.90;;;;;;5017806;28;20036;-74
2023/09/10 04:32:08;;;;;;;9.15;5.97;;;14.60;99.90;;;;;;5035974;28;20029;-75
2023/09/10 04:34:36;;;;;;;7.03;5.75;;;14.50;99.90;;;;;;5035245;28;20026;-75
2023/09/10 04:37:04;;;;;;;7.15;5.82;;;14.50;99.90;;;;;;5001058;28;20547;-75
2023/09/10 04:39:30;;;;;;;6.72;6.03;;;14.50;99.90;;;;;;5035347;28;20029;-75
2023/09/10 04:41:56;;;;;;;9.43;5.70;;;14.60;99.90;;;;;;5035200;28;20509;-75
2023/09/10 04:44:22;;;;;;;9.15;6.72;;;14.60;99.90;;;;;;5035505;28;20037;-75
2023/09/10 04:46:48;;;;;;;8.40;6.55;;;14.60;99.90;;;;;;5034859;28;20022;-75
2023/09/10 04:49:14;;;;;;;7.35;6.35;;;14.50;99.90;;;;;;5017328;28;20204;-75
2023/09/10 04:51:39;;;;;;;7.97;6.25;;;14.50;99.90;;;;;;5034794;28;20464;-75
2023/09/10 04:54:05;;;;;;;7.85;6.30;;;14.50;99.90;;;;;;5000658;28;20025;-75
2023/09/10 04:56:31;;;;;;;7.00;5.95;;;14.50;99.90;;;;;;5035032;28;20120;-75
2023/09/10 04:58:56;;;;;;;7.95;6.25;;;14.60;99.90;;;;;;5034953;28;20101;-74
2023/09/10 05:01:22;;;;;;;9.25;6.35;;;14.60;99.90;;;;;;5016896;28;20068;-74
2023/09/10 05:03:48;;;;;;;10.02;7.13;;;14.60;99.90;;;;;;5017023;28;20033;-74
2023/09/10 05:06:13;;;;;;;10.57;7.57;;;14.60;99.90;;;;;;5016769;28;20485;-74
2023/09/10 05:08:39;;;;;;;14.60;8.77;;;14.60;99.90;;;;;;5034462;28;20063;-74
2023/09/10 05:11:05;;;;;;;11.30;8.40;;;14.60;99.90;;;;;;5034384;28;20039;-75
2023/09/10 05:13:31;;;;;;;13.35;9.25;;;14.60;99.90;;;;;;5034387;28;20029;-75
2023/09/10 05:15:57;;;;;;;12.65;9.15;;;14.60;99.90;;;;;;5034619;28;20025;-74
2023/09/10 05:18:24;;;;;;;12.65;8.60;;;14.60;99.90;;;;;;5016978;28;20025;-74
2023/09/10 05:20:52;;;;;;;10.38;7.70;;;14.60;99.90;;;;;;5034246;28;20171;-75
2023/09/10 05:23:22;;;;;;;9.52;7.07;;;14.60;99.90;;;;;;5034391;28;20462;-74
2023/09/10 05:25:48;;;;;;;11.88;7.47;;;14.60;99.90;;;;;;5034240;28;20099;-74
2023/09/10 05:28:14;;;;;;;7.90;6.95;;;14.70;99.90;;;;;;5034112;28;20021;-74
2023/09/10 05:30:40;;;;;;;9.02;7.00;;;14.60;99.90;;;;;;5034141;28;20497;-74
2023/09/10 05:33:06;;;;;;;10.10;7.32;;;14.70;99.90;;;;;;4999999;28;20030;-75
2023/09/10 05:35:32;;;;;;;9.18;7.40;;;14.70;99.90;;;;;;5034305;28;20036;-74
2023/09/10 05:37:57;;;;;;;9.60;8.18;;;14.70;99.90;;;;;;5016259;28;20430;-75
2023/09/10 05:40:25;;;;;;;8.38;6.53;;;14.80;99.90;;;;;;5033964;28;20482;-74
2023/09/10 05:42:51;;;;;;;8.90;6.53;;;14.70;99.90;;;;;;5033844;28;20029;-74
2023/09/10 05:45:17;;;;;;;8.93;6.50;;;14.80;99.90;;;;;;5033919;28;20033;-74
2023/09/10 05:47:42;;;;;;;8.48;6.65;;;14.70;99.90;;;;;;5033829;28;20409;-75
2023/09/10 05:50:08;;;;;;;7.53;6.07;;;14.70;99.90;;;;;;5034016;28;20060;-74
2023/09/10 05:52:34;;;;;;;8.77;6.72;;;14.70;99.90;;;;;;5033910;28;20109;-74
2023/09/10 05:55:00;;;;;;;6.35;5.72;;;14.70;99.90;;;;;;5033648;28;20061;-74
2023/09/10 05:57:25;;;;;;;7.53;6.30;;;14.70;99.90;;;;;;4999623;28;20489;-74
2023/09/10 05:59:51;;;;;;;8.07;6.40;;;14.80;99.90;;;;;;5034223;28;20075;-75
2023/09/10 06:02:17;;;;;;;7.85;6.50;;;14.80;99.90;;;;;;5033719;28;20040;-75
2023/09/10 06:04:42;;;;;;;10.43;7.00;;;14.80;99.90;;;;;;5033882;28;20033;-75
2023/09/10 06:07:08;;;;;;;10.25;7.18;;;14.90;99.90;;;;;;5015978;28;20041;-74
2023/09/10 06:09:34;;;;;;;8.10;6.82;;;14.90;99.90;;;;;;5033472;28;20029;-74
2023/09/10 06:12:02;;;;;;;8.98;7.82;;;14.90;99.90;;;;;;5033366;28;20029;-75
2023/09/10 06:14:30;;;;;;;10.48;7.78;;;14.90;99.90;;;;;;5015559;28;20362;-75
2023/09/10 06:16:58;;;;;;;9.27;8.05;;;15.00;99.90;;;;;;5033418;28;20100;-75
2023/09/10 06:19:24;;;;;;;9.52;7.22;;;15.00;99.90;;;;;;5033438;28;20022;-74
2023/09/10 06:21:50;;;;;;;11.40;8.15;;;15.10;99.90;;;;;;5015761;28;20033;-74
2023/09/10 06:24:15;;;;;;;9.90;8.05;;;15.20;99.90;;;;;;5015868;28;20037;-74
2023/09/10 06:26:41;;;;;;;10.10;8.07;;;15.20;99.90;;;;;;4999881;28;20048;-75
2023/09/10 06:29:07;;;;;;;9.93;7.97;;;15.30;99.90;;;;;;5033307;28;20030;-75
2023/09/10 06:31:33;;;;;;;9.40;7.72;;;15.30;99.90;;;;;;5015543;28;20033;-75
2023/09/10 06:33:59;;;;;;;8.93;7.35;;;15.40;99.90;;;;;;5033229;28;20068;-75
2023/09/10 06:36:25;;;;;;;8.95;7.65;;;15.40;99.90;;;;;;5033278;28;20482;-74
2023/09/10 06:38:51;;;;;;;11.73;8.40;;;15.50;99.90;;;;;;5033193;28;20057;-75
2023/09/10 06:41:17;;;;;;;9.30;7.70;;;15.60;99.90;;;;;;5033698;28;20061;-74
2023/09/10 06:43:43;;;;;;;11.65;8.10;;;15.70;99.90;;;;;;5015516;28;20057;-75
2023/09/10 06:46:10;;;;;;;11.27;8.48;;;15.70;99.90;;;;;;5015740;28;20117;-75
2023/09/10 06:48:36;;;;;;;10.27;8.43;;;15.80;99.90;;;;;;5033181;28;20053;-75
2023/09/10 06:51:02;;;;;;;11.10;8.55;;;15.90;99.90;;;;;;5015456;28;20524;-74
2023/09/10 06:53:28;;;;;;;11.23;9.38;;;16.00;99.90;;;;;;5033314;28;20390;-74
2023/09/10 06:55:54;;;;;;;13.45;9.98;;;16.00;99.90;;;;;;5033166;28;20034;-74
2023/09/10 06:58:21;;;;;;;13.70;10.68;;;16.10;99.90;;;;;;5033061;28;20122;-75
2023/09/10 07:00:46;;;;;;;12.32;10.48;;;16.20;99.90;;;;;;5033412;28;20100;-75
2023/09/10 07:03:13;;;;;;;13.52;11.32;;;16.20;99.90;;;;;;5015270;28;20073;-75
2023/09/10 07:05:42;;;;;;;14.27;11.45;;;16.30;99.90;;;;;;5033322;28;20017;-75
2023/09/10 07:08:11;;;;;;;16.60;12.45;;;16.40;99.90;;;;;;4999504;28;20030;-75
2023/09/10 07:10:37;;;;;;;14.88;12.27;;;16.50;99.90;;;;;;5015794;28;20385;-75
2023/09/10 07:13:08;;;;;;;13.93;11.50;;;16.60;99.90;;;;;;5032733;28;20112;-75
2023/09/10 07:15:34;;;;;;;14.07;10.82;;;16.70;99.90;;;;;;5032954;28;20025;-75
2023/09/10 07:18:00;;;;;;;15.85;12.50;;;16.80;99.90;;;;;;5015225;28;20576;-75
2023/09/10 07:20:27;;;;;;;14.98;12.00;;;16.90;99.90;;;;;;5015100;28;20037;-75
2023/09/10 07:22:53;;;;;;;14.60;10.88;;;16.90;99.90;;;;;;5032819;28;20060;-75
2023/09/10 07:25:19;;;;;;;14.93;11.45;;;17.00;99.90;;;;;;5017487;28;20455;-75
2023/09/10 07:27:44;;;;;;;14.73;12.10;;;17.10;99.90;;;;;;5036501;28;20104;-75
2023/09/10 07:30:11;;;;;;;19.27;15.18;;;17.20;99.90;;;;;;5036322;28;20124;-75
2023/09/10 07:32:37;;;;;;;16.92;13.60;;;17.30;99.90;;;;;;5018726;28;20417;-75
2023/09/10 07:35:03;;;;;;;14.52;12.25;;;17.40;99.90;;;;;;5018529;28;20091;-75
2023/09/10 07:37:28;;;;;;;18.38;15.20;;;17.40;99.90;;;;;;5018853;28;20075;-75
2023/09/10 07:39:54;;;;;;;16.92;13.93;;;17.50;99.90;;;;;;5036343;28;20026;-75
2023/09/10 07:42:20;;;;;;;15.55;12.70;;;17.60;99.90;;;;;;5019090;28;20425;-75
2023/09/10 07:44:45;;;;;;;17.65;14.70;;;17.70;99.90;;;;;;5036186;28;20025;-75
2023/09/10 07:47:11;;;;;;;17.80;14.48;;;17.80;99.90;;;;;;5036437;28;20529;-74
2023/09/10 07:49:37;;;;;;;17.05;13.65;;;17.90;99.90;;;;;;5036137;28;20034;-74
2023/09/10 07:52:04;;;;;;;14.05;11.15;;;18.00;99.90;;;;;;5035924;28;20040;-75
2023/09/10 07:54:30;;;;;;;23.58;18.23;;;18.10;99.90;;;;;;5035974;28;20037;-75
2023/09/10 07:56:56;;;;;;;18.48;15.38;;;18.20;99.90;;;;;;5035965;28;20116;-75
2023/09/10 07:59:22;;;;;;;20.77;17.35;;;18.30;99.90;;;;;;5018101;28;20116;-75
2023/09/10 08:01:47;;;;;;;20.48;17.65;;;18.40;99.90;;;;;;5018275;28;20029;-75
2023/09/10 08:04:13;;;;;;;25.42;22.70;;;18.50;99.90;;;;;;5018088;28;20494;-74
2023/09/10 08:06:39;;;;;;;26.42;22.00;;;18.60;99.90;;;;;;5018035;28;20041;-75
2023/09/10 08:09:05;;;;;;;27.15;21.90;;;18.80;99.90;;;;;;5035847;28;20037;-75
2023/09/10 08:11:31;;;;;;;23.27;20.35;;;19.00;99.90;;;;;;5035914;28;20079;-75
2023/09/10 08:13:57;;;;;;;29.88;24.23;;;19.10;99.90;;;;;;5035549;28;20034;-75
2023/09/10 08:16:22;;;;;;;27.23;23.55;;;19.20;99.90;;;;;;5035567;28;20036;-75
2023/09/10 08:18:48;;;;;;;23.65;21.05;;;19.30;99.90;;;;;;5035727;28;20025;-75
2023/09/10 08:21:14;;;;;;;21.10;17.52;;;19.40;99.90;;;;;;5035640;28;20044;-75
2023/09/10 08:23:40;;;;;;;21.80;17.50;;;19.60;99.90;;;;;;5035696;28;20037;-75
2023/09/10 08:26:05;;;;;;;19.75;17.35;;;19.70;99.90;;;;;;5035404;28;20509;-75
2023/09/10 08:28:31;;;;;;;26.08;22.73;;;19.80;99.90;;;;;;5017573;28;20128;-75
2023/09/10 08:30:57;;;;;;;20.67;18.48;;;19.90;99.90;;;;;;5035175;28;20034;-75
2023/09/10 08:33:25;;;;;;;22.25;17.95;;;20.00;99.90;;;;;;5017500;28;20040;-75
2023/09/10 08:35:52;;;;;;;18.63;16.60;;;20.10;99.90;;;;;;5034576;28;20045;-75
2023/09/10 08:38:18;;;;;;;17.75;15.85;;;20.30;99.90;;;;;;5017401;28;20025;-76
2023/09/10 08:40:59;;;;;;;19.35;16.70;;;20.40;99.90;;;;;;5018000;28;20029;-75
2023/09/10 08:43:56;;;;;;;19.02;15.68;;;20.50;99.90;;;;;;5035365;28;20024;-73
2023/09/10 08:46:29;;;;;;;17.13;13.80;;;20.70;99.90;;;;;;5017332;28;20136;-73
2023/09/10 08:48:57;;;;;;;14.32;11.73;;;20.80;99.90;;;;;;5034985;28;20032;-73
2023/09/10 08:51:23;;;;;;;16.38;12.93;;;21.00;99.90;;;;;;5034780;28;20385;-72
2023/09/10 08:53:51;;;;;;;14.05;12.25;;;21.10;99.90;;;;;;5034526;28;20473;-73
2023/09/10 08:56:17;;;;;;;15.93;12.57;;;21.30;99.90;;;;;;5034990;28;20021;-72
2023/09/10 08:58:45;;;;;;;14.73;12.55;;;21.40;99.90;;;;;;5034977;28;20029;-73
2023/09/10 09:01:12;;;;;;;12.60;10.95;;;21.60;99.90;;;;;;5000879;28;20037;-73
2023/09/10 09:03:38;;;;;;;12.68;11.38;;;21.70;99.90;;;;;;5035100;28;20152;-75
2023/09/10 09:06:05;;;;;;;12.95;11.60;;;21.80;99.90;;;;;;5016889;28;20116;-75
2023/09/10 09:08:35;;;;;;;11.77;10.57;;;21.90;99.90;;;;;;5016770;28;20025;-76
2023/09/10 09:11:04;;;;;;;13.52;12.07;;;22.10;99.90;;;;;;5016589;28;20018;-75
2023/09/10 09:13:37;;;;;;;13.35;11.25;;;22.20;99.90;;;;;;5020673;28;20075;-75
2023/09/10 09:16:04;;;;;;;12.18;10.98;;;22.40;99.90;;;;;;5053739;28;20063;-75
2023/09/10 09:18:31;;;;;;;11.98;10.43;;;22.50;99.90;;;;;;5040367;28;20026;-75
2023/09/10 09:21:02;;;;;;;12.57;10.25;;;22.70;99.90;;;;;;5034851;28;20109;-74
2023/09/10 09:23:33;;;;;;;10.52;9.43;;;22.80;99.90;;;;;;5036230;28;20461;-75
2023/09/10 09:25:58;;;;;;;;;;;22.90;99.90;;;;;;5054736;28;20041;-75
2023/09/10 09:28:27;;;;;;;12.32;11.02;;;23.00;99.90;;;;;;5036697;28;19958;-75
2023/09/10 09:30:53;;;;;;;10.50;9.07;;;23.20;99.90;;;;;;5036350;28;20025;-75
2023/09/10 09:33:19;;;;;;;9.85;8.73;;;23.30;99.90;;;;;;5042030;28;20489;-75
2023/09/10 09:35:46;;;;;;;10.77;8.68;;;23.40;99.90;;;;;;5053977;28;20029;-75
2023/09/10 09:38:15;;;;;;;8.75;7.85;;;23.50;99.90;;;;;;5035964;28;20029;-74
2023/09/10 09:40:42;;;;;;;11.85;9.82;;;23.60;99.90;;;;;;5054076;28;20447;-74
2023/09/10 09:43:09;;;;;;;10.48;8.55;;;23.70;99.90;;;;;;5045153;28;20465;-74
2023/09/10 09:45:36;;;;;;;12.00;9.70;;;23.80;99.90;;;;;;5032596;28;20120;-74
2023/09/10 09:48:05;;;;;;;11.27;9.45;;;23.90;99.90;;;;;;5032485;28;20393;-74
2023/09/10 09:50:32;;;;;;;10.70;9.30;;;24.00;99.90;;;;;;5033733;28;20033;-74
2023/09/10 09:52:57;;;;;;;9.80;8.80;;;24.20;99.90;;;;;;5033970;28;20474;-74
2023/09/10 09:55:23;;;;;;;10.30;9.25;;;24.30;99.90;;;;;;5015878;28;20080;-74
2023/09/10 09:57:50;;;;;;;10.90;8.90;;;24.40;99.90;;;;;;5033787;28;20093;-74
2023/09/10 10:00:16;;;;;;;10.35;9.23;;;24.50;99.90;;;;;;5033623;28;20022;-74
2023/09/10 10:02:43;;;;;;;9.95;8.95;;;24.60;99.90;;;;;;5033661;28;20080;-74
2023/09/10 10:05:09;;;;;;;12.23;8.70;;;24.70;99.90;;;;;;5033630;28;20448;-74
2023/09/10 10:07:40;;;;;;;10.88;9.10;;;24.80;99.90;;;;;;5033581;28;20018;-74
2023/09/10 10:10:07;;;;;;;9.10;8.18;;;24.90;99.90;;;;;;5033538;28;20021;-74
2023/09/10 10:12:34;;;;;;;9.52;8.05;;;25.10;99.90;;;;;;5015584;28;20044;-74
2023/09/10 10:15:00;;;;;;;8.30;7.35;;;25.20;99.90;;;;;;5033755;28;20104;-74
2023/09/10 10:17:26;;;;;;;8.25;7.45;;;25.30;99.90;;;;;;5033464;28;20029;-74
2023/09/10 10:19:53;;;;;;;9.20;7.82;;;25.40;99.90;;;;;;5034080;28;20026;-74
2023/09/10 10:22:19;;;;;;;9.63;8.60;;;25.50;99.90;;;;;;5033581;28;20080;-74
2023/09/10 10:24:46;;;;;;;9.52;8.60;;;25.60;99.90;;;;;;5033417;28;20025;-74
2023/09/10 10:27:14;;;;;;;10.15;8.60;;;25.60;99.90;;;;;;5033306;28;20036;-74
2023/09/10 10:29:40;;;;;;;9.07;8.18;;;25.80;99.90;;;;;;5015751;28;20041;-74
2023/09/10 10:32:32;;;;;;;7.93;7.07;;;25.90;99.90;;;;;;5033313;28;20034;-76
2023/09/10 10:35:01;;;;;;;9.70;8.20;;;25.90;99.90;;;;;;5033610;28;20056;-74
2023/09/10 10:37:59;;;;;;;9.07;7.65;;;26.00;99.90;;;;;;5033324;28;20474;-74
2023/09/10 10:40:28;;;;;;;8.52;7.05;;;26.10;99.90;;;;;;5033665;28;20427;-74
2023/09/10 10:42:53;;;;;;;9.65;6.93;;;26.20;99.90;;;;;;5033485;28;20029;-74
2023/09/10 10:45:20;;;;;;;8.30;6.93;;;26.40;99.90;;;;;;5033331;28;20045;-75
2023/09/10 10:47:47;;;;;;;7.68;6.90;;;26.40;99.90;;;;;;5033873;28;20389;-74
2023/09/10 10:50:25;;;;;;;9.40;7.05;;;26.50;99.90;;;;;;5033252;28;20032;-74
2023/09/10 10:52:58;;;;;;;8.88;6.53;;;26.50;99.90;;;;;;5033152;28;20099;-76
2023/09/10 10:55:25;;;;;;;7.18;6.47;;;26.70;99.90;;;;;;5033134;28;20045;-74
2023/09/10 10:57:52;;;;;;;8.43;7.07;;;26.70;99.90;;;;;;5033271;28;20029;-74
2023/09/10 11:00:20;;;;;;;8.93;6.78;;;26.80;99.90;;;;;;5035548;28;20426;-75
2023/09/10 11:02:49;;;;;;;9.68;6.95;;;26.80;99.90;;;;;;5037347;28;20051;-76
2023/09/10 11:05:15;;;;;;;7.07;6.25;;;27.00;99.90;;;;;;5019267;28;20030;-74
2023/09/10 11:07:41;;;;;;;7.63;6.75;;;27.10;99.90;;;;;;5037206;28;20032;-74
2023/09/10 11:10:26;;;;;;;7.68;6.85;;;27.20;99.90;;;;;;5037036;28;20033;-74
2023/09/10 11:13:13;;;;;;;9.35;6.70;;;27.30;99.90;;;;;;5036706;28;20048;-74
2023/09/10 11:16:03;;;;;;;7.95;6.53;;;27.20;99.90;;;;;;5036825;28;20018;-75
2023/09/10 11:18:34;;;;;;;8.73;6.50;;;27.40;99.70;;;;;;5036720;28;20031;-74
2023/09/10 11:21:01;;;;;;;9.68;6.70;;;27.50;99.10;;;;;;5036595;28;20026;-75
2023/09/10 11:23:27;;;;;;;6.90;6.20;;;27.70;99.10;;;;;;5036478;28;20025;-75
2023/09/10 11:25:53;;;;;;;7.35;6.20;;;27.80;98.20;;;;;;5036619;28;20416;-75
2023/09/10 11:28:40;;;;;;;7.75;6.95;;;27.90;98.20;;;;;;5046994;28;20033;-75
2023/09/10 11:34:19;;;;;;;7.68;6.10;;;28.10;97.90;;;;;;5042912;28;20037;-75
2023/09/10 11:36:48;;;;;;;6.15;5.32;;;28.20;97.70;;;;;;5038100;28;20021;-75
2023/09/10 11:39:15;;;;;;;8.45;6.10;;;28.30;97.20;;;;;;5019802;28;20027;-75
2023/09/10 11:41:52;;;;;;;6.18;5.57;;;28.40;95.80;;;;;;5037599;28;20045;-75
2023/09/10 11:44:19;;;;;;;8.10;5.95;;;28.50;95.80;;;;;;5019612;28;20417;-75
2023/09/10 11:46:45;;;;;;;6.85;5.30;;;28.50;94.60;;;;;;5029836;28;20040;-75
2023/09/10 11:49:12;;;;;;;7.55;6.32;;;28.60;94.90;;;;;;5055704;28;20037;-75
2023/09/10 11:51:45;;;;;;;6.13;5.50;;;28.60;94.60;;;;;;5056627;28;20104;-75
2023/09/10 11:54:16;;;;;;;6.90;5.65;;;28.80;94.20;;;;;;5038631;28;20515;-75
2023/09/10 11:56:52;;;;;;;;;;;28.80;93.90;;;;;;5056985;28;20021;-75
2023/09/10 11:59:20;;;;;;;6.50;5.55;;;28.80;93.20;;;;;;5053890;28;19940;-75
2023/09/10 12:01:46;;;;;;;6.15;5.45;;;28.80;93.50;;;;;;5051330;28;20056;-75
2023/09/10 12:04:13;;;;;;;6.43;5.35;;;28.90;92.60;;;;;;5053073;28;20448;-75
2023/09/10 12:06:39;;;;;;;6.68;5.25;;;28.90;92.70;;;;;;5050293;28;20037;-75
2023/09/10 12:09:05;;;;;;;7.15;6.00;;;29.00;92.30;;;;;;5036001;28;20091;-75
2023/09/10 12:11:33;;;;;;;8.57;5.68;;;29.00;91.90;;;;;;5053099;28;20030;-74
2023/09/10 12:13:59;;;;;;;7.13;5.80;;;29.00;93.00;;;;;;5054545;28;20021;-75
2023/09/10 12:16:26;;;;;;;7.13;5.45;;;29.10;92.30;;;;;;5047306;28;20104;-75
2023/09/10 12:18:52;;;;;;;6.32;5.20;;;29.20;91.80;;;;;;5017604;28;20029;-75
2023/09/10 12:21:19;;;;;;;6.35;4.65;;;29.30;92.60;;;;;;5035692;28;20025;-75
2023/09/10 12:23:45;;;;;;;6.25;5.13;;;29.50;89.30;;;;;;5003620;28;20104;-75
2023/09/10 12:26:14;;;;;;;6.30;5.35;;;29.50;91.30;;;;;;5035339;28;20026;-75
2023/09/10 12:28:40;;;;;;;5.95;5.28;;;29.60;90.10;;;;;;5035400;28;20022;-75
2023/09/10 12:31:06;;;;;;;6.78;5.38;;;29.70;90.50;;;;;;5017648;28;20028;-74
2023/09/10 12:33:32;;;;;;;6.00;5.30;;;29.60;90.60;;;;;;5035548;28;20033;-74
2023/09/10 12:35:57;;;;;;;6.20;5.60;;;29.70;89.70;;;;;;5035485;28;20030;-74
2023/09/10 12:38:24;;;;;;;6.85;5.53;;;29.70;90.30;;;;;;5054814;28;20580;-75
2023/09/10 12:40:52;;;;;;;6.05;5.13;;;29.80;89.20;;;;;;5055076;28;20484;-75
2023/09/10 12:43:21;;;;;;;5.88;5.07;;;29.80;90.10;;;;;;5050111;28;20448;-75
2023/09/10 12:45:47;;;;;;;6.85;5.80;;;29.70;90.20;;;;;;5055337;28;20549;-75
2023/09/10 12:48:17;;;;;;;7.00;5.40;;;29.70;90.10;;;;;;5036853;28;20294;-74